Bookmark and Share
Track history (hours):
 

Mediterranean Sea

Last reported at 2014-Apr-21 06:11 UTC. Time now 2014-Apr-21 07:26 UTC.
Position N 39°49' W 075°24'.

Length 65 m; draft 6 m.

Type: Towing. MMSI: 367010390.

NotesDate/timePositionNaut miles runAvg speedWind from/ knotsBaromVisibWave heightAir tempDewpointWater temp
2014-Apr-21 06:11N 39°49' W 075°24'60 1.3
2014-Apr-19 09:15N 39°26' W 074°12'5 7.5
2014-Apr-19 08:33N 39°30' W 074°09'8 7.5
2014-Apr-19 07:33N 39°37' W 074°04'8 7.6
2014-Apr-19 06:33N 39°44' W 073°60'8 7.5
2014-Apr-19 05:32N 39°51' W 073°58'30 7.5
2014-Apr-19 01:32N 40°21' W 073°54'7 7.3
2014-Apr-19 00:34N 40°28' W 073°54'6 5.4
2014-Apr-18 23:33N 40°31' W 073°60'4 4.5
2014-Apr-18 22:33N 40°35' W 074°02'5 4.9
2014-Apr-18 21:33N 40°40' W 074°04'0 0.1
2014-Apr-18 20:33N 40°40' W 074°04'0 0.0
2014-Apr-18 19:33N 40°40' W 074°04'5 4.5
2014-Apr-18 18:32N 40°39' W 074°10'1 1.0
2014-Apr-18 17:33N 40°39' W 074°09'1 1.0
2014-Apr-18 16:33N 40°39' W 074°10'1 0.9
2014-Apr-18 15:33N 40°39' W 074°09'1 0.9
2014-Apr-18 14:33N 40°39' W 074°10'0 0.0
2014-Apr-18 13:33N 40°39' W 074°10'0 0.0
2014-Apr-18 12:33N 40°39' W 074°10'0 0.0
2014-Apr-18 11:33N 40°39' W 074°10'0 0.0
2014-Apr-18 10:33N 40°39' W 074°10'0 0.0
2014-Apr-18 09:33N 40°39' W 074°10'0 0.0
2014-Apr-18 08:33N 40°39' W 074°10'0 0.0
2014-Apr-18 07:33N 40°39' W 074°10'0 0.0
2014-Apr-18 06:33N 40°39' W 074°10'0 0.0
2014-Apr-18 05:33N 40°39' W 074°10'0 0.0
2014-Apr-18 04:33N 40°39' W 074°10'0 0.0
2014-Apr-18 03:33N 40°39' W 074°10'0 0.0
2014-Apr-18 02:33N 40°39' W 074°10'0 0.0
2014-Apr-18 01:33N 40°39' W 074°10'0 0.0
2014-Apr-18 00:33N 40°39' W 074°10'0 0.0
2014-Apr-17 23:33N 40°39' W 074°10'0 0.0
2014-Apr-17 22:33N 40°39' W 074°10'0 0.0
2014-Apr-17 21:33N 40°39' W 074°10'0 0.0
2014-Apr-17 20:33N 40°39' W 074°10'0 0.0
2014-Apr-17 19:33N 40°39' W 074°10'0 0.0
2014-Apr-17 18:33N 40°39' W 074°10'0 0.0
2014-Apr-17 17:33N 40°39' W 074°10'0 0.0
2014-Apr-17 16:33N 40°39' W 074°10'0 0.0
2014-Apr-17 15:33N 40°39' W 074°10'0 0.0
2014-Apr-17 14:33N 40°39' W 074°10'0 0.0
2014-Apr-17 13:33N 40°39' W 074°10'0 0.0
2014-Apr-17 12:33N 40°39' W 074°10'0 0.0
2014-Apr-17 11:33N 40°39' W 074°10'0 0.0
2014-Apr-17 10:33N 40°39' W 074°10'0 0.0
2014-Apr-17 09:33N 40°39' W 074°10'0 0.0
2014-Apr-17 08:33N 40°39' W 074°10'0 0.0
2014-Apr-17 07:33N 40°39' W 074°10'0 0.0
2014-Apr-17 06:33N 40°39' W 074°10'0 0.0
2014-Apr-17 05:33N 40°39' W 074°10'0 0.0
2014-Apr-17 04:33N 40°39' W 074°10'0 0.0
2014-Apr-17 03:33N 40°39' W 074°10'0 0.0
2014-Apr-17 02:33N 40°39' W 074°10'0 0.0
2014-Apr-17 01:33N 40°39' W 074°10'0 0.0
2014-Apr-17 00:33N 40°39' W 074°10'0 0.0
2014-Apr-16 23:33N 40°39' W 074°10'0 0.0
2014-Apr-16 22:33N 40°39' W 074°10'0 0.0
2014-Apr-16 21:33N 40°39' W 074°10'0 0.0
2014-Apr-16 20:33N 40°39' W 074°10'0 0.0
2014-Apr-16 19:33N 40°39' W 074°10'0 0.0
2014-Apr-16 18:33N 40°39' W 074°10'0 0.0
2014-Apr-16 17:33N 40°39' W 074°10'0 0.0
2014-Apr-16 16:33N 40°39' W 074°10'0 0.0
2014-Apr-16 15:33N 40°39' W 074°10'0 0.0
2014-Apr-16 14:33N 40°39' W 074°10'0 0.0
2014-Apr-16 13:33N 40°39' W 074°10'0 0.0
2014-Apr-16 12:33N 40°39' W 074°10'0 0.0
2014-Apr-16 11:33N 40°39' W 074°10'0 0.0
2014-Apr-16 10:33N 40°39' W 074°10'0 0.0
2014-Apr-16 09:33N 40°39' W 074°10'0 0.0
2014-Apr-16 08:33N 40°39' W 074°10'0 0.0
2014-Apr-16 07:33N 40°39' W 074°10'0 0.0
2014-Apr-16 06:33N 40°39' W 074°10'0 0.0
2014-Apr-16 05:33N 40°39' W 074°10'0 0.0
2014-Apr-16 04:33N 40°39' W 074°10'0 0.0
2014-Apr-16 03:33N 40°39' W 074°10'0 0.0
2014-Apr-16 02:33N 40°39' W 074°10'0 0.0
2014-Apr-16 01:33N 40°39' W 074°10'0 0.0
2014-Apr-16 00:33N 40°39' W 074°10'0 0.0
2014-Apr-15 23:33N 40°39' W 074°10'0 0.0
2014-Apr-15 22:33N 40°39' W 074°10'0 0.0
2014-Apr-15 21:33N 40°39' W 074°10'0 0.0
2014-Apr-15 20:33N 40°39' W 074°10'0 0.0
2014-Apr-15 19:33N 40°39' W 074°10'0 0.0
2014-Apr-15 18:33N 40°39' W 074°10'0 0.0
2014-Apr-15 17:33N 40°39' W 074°10'0 0.0
2014-Apr-15 16:33N 40°39' W 074°10'0 0.0
2014-Apr-15 15:33N 40°39' W 074°10'0 0.0
2014-Apr-15 14:33N 40°39' W 074°10'0 0.0
2014-Apr-15 12:34N 40°39' W 074°10'0 0.0
2014-Apr-15 11:34N 40°39' W 074°10'0 0.0
2014-Apr-15 10:34N 40°39' W 074°10'0 0.0
2014-Apr-15 09:34N 40°39' W 074°10'0 0.0
2014-Apr-15 08:34N 40°39' W 074°10'0 0.0
2014-Apr-15 07:34N 40°39' W 074°10'0 0.0
2014-Apr-15 06:34N 40°39' W 074°10'0 0.0
2014-Apr-15 05:34N 40°39' W 074°10'0 0.0
2014-Apr-15 03:34N 40°39' W 074°10'0 0.0
2014-Apr-15 02:34N 40°39' W 074°10'0 0.0
2014-Apr-15 01:34N 40°39' W 074°10'0 0.0
2014-Apr-15 00:34N 40°39' W 074°10'0 0.0
2014-Apr-14 23:34N 40°39' W 074°10'0 0.0
2014-Apr-14 22:34N 40°39' W 074°10'0 0.0
2014-Apr-14 21:34N 40°39' W 074°10'0 0.0
2014-Apr-14 20:34N 40°39' W 074°10'0 0.0
2014-Apr-14 19:34N 40°39' W 074°10'0 0.0
2014-Apr-14 18:33N 40°39' W 074°10'0 0.0
2014-Apr-14 17:34N 40°39' W 074°10'0 0.0
2014-Apr-14 16:34N 40°39' W 074°10'0 0.0
2014-Apr-14 15:34N 40°39' W 074°10'0 0.0
2014-Apr-14 14:34N 40°39' W 074°10'0 0.0
2014-Apr-14 13:34N 40°39' W 074°10'0 0.0
2014-Apr-14 11:34N 40°39' W 074°10'0 0.0
2014-Apr-14 10:34N 40°39' W 074°10'0 0.0
2014-Apr-14 09:34N 40°39' W 074°10'0 0.0
2014-Apr-14 08:34N 40°39' W 074°10'0 0.0
2014-Apr-14 07:34N 40°39' W 074°10'0 0.0
2014-Apr-14 06:33N 40°39' W 074°10'0 0.0
2014-Apr-14 05:33N 40°39' W 074°10'0 0.0
2014-Apr-13 22:33N 40°39' W 074°10'0 0.0
2014-Apr-13 21:33N 40°39' W 074°10'0 0.0
2014-Apr-13 20:33N 40°39' W 074°10'0 0.0
2014-Apr-13 19:33N 40°39' W 074°10'0 0.0
2014-Apr-13 18:33N 40°39' W 074°10'0 0.0
2014-Apr-13 17:33N 40°39' W 074°10'0 0.0
2014-Apr-13 16:33N 40°39' W 074°10'0 0.0
2014-Apr-13 15:33N 40°39' W 074°10'0 0.0
2014-Apr-13 14:33N 40°39' W 074°10'0 0.0
2014-Apr-13 13:33N 40°39' W 074°10'0 0.0
2014-Apr-13 12:33N 40°39' W 074°10'0 0.0
2014-Apr-13 11:33N 40°39' W 074°10'0 0.0
2014-Apr-13 10:33N 40°39' W 074°10'0 0.0
2014-Apr-13 09:33N 40°39' W 074°10'0 0.0
2014-Apr-13 08:33N 40°39' W 074°10'0 0.0
2014-Apr-13 07:33N 40°39' W 074°10'0 0.0
2014-Apr-13 06:33N 40°39' W 074°10'0 0.0
2014-Apr-13 05:33N 40°39' W 074°10'0 0.0
2014-Apr-13 04:33N 40°39' W 074°10'0 0.0
2014-Apr-13 03:33N 40°39' W 074°10'0 0.0
2014-Apr-13 02:33N 40°39' W 074°10'0 0.0
2014-Apr-13 01:33N 40°39' W 074°10'0 0.0
2014-Apr-13 00:33N 40°39' W 074°10'0 0.0
2014-Apr-12 23:33N 40°39' W 074°10'0 0.0
2014-Apr-12 22:33N 40°39' W 074°10'0 0.0
2014-Apr-12 21:33N 40°39' W 074°10'0 0.0
2014-Apr-12 20:33N 40°39' W 074°10'0 0.0
2014-Apr-12 19:33N 40°39' W 074°10'0 0.0
2014-Apr-12 18:33N 40°39' W 074°10'0 0.0
2014-Apr-12 17:33N 40°39' W 074°10'0 0.0
2014-Apr-12 16:33N 40°39' W 074°10'0 0.0
2014-Apr-12 15:33N 40°39' W 074°10'0 0.0
2014-Apr-12 14:33N 40°39' W 074°10'0 0.0
2014-Apr-12 13:33N 40°39' W 074°10'0 0.0
2014-Apr-12 12:33N 40°39' W 074°10'0 0.0
2014-Apr-12 11:33N 40°38' W 074°10'0 0.0
2014-Apr-12 10:33N 40°39' W 074°10'0 0.0
2014-Apr-12 09:33N 40°38' W 074°10'0 0.0
2014-Apr-12 08:33N 40°38' W 074°10'0 0.0
2014-Apr-12 07:33N 40°39' W 074°10'0 0.0
2014-Apr-12 06:33N 40°38' W 074°10'0 0.0
2014-Apr-12 05:33N 40°38' W 074°10'0 0.0
2014-Apr-12 04:33N 40°39' W 074°10'0 0.0
2014-Apr-12 03:33N 40°38' W 074°10'0 0.0
2014-Apr-12 02:33N 40°38' W 074°10'0 0.0
2014-Apr-12 01:33N 40°38' W 074°10'0 0.0
2014-Apr-12 00:33N 40°38' W 074°10'0 0.0
2014-Apr-11 23:33N 40°38' W 074°10'0 0.0
2014-Apr-11 22:33N 40°39' W 074°10'0 0.0
2014-Apr-11 21:33N 40°39' W 074°10'0 0.0
2014-Apr-11 20:33N 40°38' W 074°10'0 0.2
2014-Apr-11 19:33N 40°38' W 074°10'0 0.2
2014-Apr-11 18:33N 40°38' W 074°10'0 0.0
2014-Apr-11 17:33N 40°38' W 074°10'0 0.0
2014-Apr-11 16:33N 40°38' W 074°10'0 0.0
2014-Apr-11 15:33N 40°38' W 074°10'0 0.0
2014-Apr-11 14:33N 40°38' W 074°10'0 0.0
2014-Apr-11 13:33N 40°39' W 074°10'0 0.0
2014-Apr-11 12:33N 40°38' W 074°10'0 0.0
2014-Apr-11 11:33N 40°38' W 074°10'0 0.0
2014-Apr-11 10:33N 40°38' W 074°10'0 0.0
2014-Apr-11 09:33N 40°38' W 074°10'0 0.0
2014-Apr-11 08:34N 40°38' W 074°10'0 0.0
2014-Apr-11 07:33N 40°39' W 074°10'0 0.0
2014-Apr-11 06:34N 40°38' W 074°10'  

Dump ship's entire track history

sailing weather and tide predictions

Mediterranean Sea — WDG229 — position and weather